Time;durP1;ratioP1;P1;durP2;ratioP2;P2;SDS_P1;SDS_P2;PMS_P1;PMS_P2;Temp;Humidity;BMP_temperature;BMP_pressure;BME280_temperature;BME280_humidity;BME280_pressure;Samples;Min_cycle;Max_cycle;Signal;HPM_P1;HPM_P2
2021/05/29 00:00:10;;;;;;;2.42;0.90;;;;;;;9.08;96.42;93145.62;1841425;77;21008;-81
2021/05/29 00:02:37;;;;;;;1.10;1.10;;;;;;;9.09;96.40;93142.51;1839737;77;21605;-80
2021/05/29 00:05:05;;;;;;;1.40;1.30;;;;;;;9.11;96.15;93145.61;1841793;77;21012;-80
2021/05/29 00:07:33;;;;;;;1.47;1.40;;;;;;;9.08;96.15;93137.48;1841791;77;20905;-80
2021/05/29 00:10:00;;;;;;;7.28;3.05;;;;;;;9.13;96.22;93150.64;1842209;77;21075;-81
2021/05/29 00:12:27;;;;;;;1.00;1.00;;;;;;;9.13;95.96;93145.21;1817066;77;21098;-80
2021/05/29 00:14:55;;;;;;;1.47;1.10;;;;;;;9.13;95.85;93151.41;1850872;77;21720;-80
2021/05/29 00:17:23;;;;;;;1.22;1.20;;;;;;;9.12;95.87;93159.95;1836445;78;21068;-80
2021/05/29 00:19:49;;;;;;;1.40;1.30;;;;;;;9.14;95.94;93163.83;1825965;78;21111;-81
2021/05/29 00:22:16;;;;;;;1.07;1.07;;;;;;;9.15;95.74;93159.17;1823922;78;20974;-80
2021/05/29 00:24:42;;;;;;;2.75;1.50;;;;;;;9.15;95.66;93164.01;1829158;78;21036;-81
2021/05/29 00:27:09;;;;;;;1.70;1.30;;;;;;;9.15;95.54;93168.66;1846630;76;21674;-80
2021/05/29 00:29:35;;;;;;;;;;;;;;;;;;;;;
2021/05/29 00:32:02;;;;;;;1.62;1.52;;;;;;;9.16;95.85;93166.91;1808766;79;22256;-80
2021/05/29 00:34:29;;;;;;;4.72;1.87;;;;;;;9.17;95.48;93172.52;1870413;75;21027;-81
2021/05/29 00:36:56;;;;;;;1.70;1.60;;;;;;;9.18;95.39;93167.88;1888434;76;21675;-80
2021/05/29 00:39:22;;;;;;;2.62;1.98;;;;;;;9.21;95.34;93164.36;1874355;75;21084;-80
2021/05/29 00:41:49;;;;;;;2.47;2.27;;;;;;;9.23;95.10;93164.17;1841472;77;21099;-81
2021/05/29 00:44:17;;;;;;;2.40;2.20;;;;;;;9.20;94.80;93166.89;1841663;77;21000;-81
2021/05/29 00:46:43;;;;;;;5.30;3.52;;;;;;;9.12;94.83;93165.38;1841562;77;21060;-81
2021/05/29 00:49:10;;;;;;;5.15;3.67;;;;;;;9.08;95.18;93163.25;1841937;77;21000;-80
2021/05/29 00:51:37;;;;;;;4.03;3.30;;;;;;;9.11;95.44;93155.11;1840714;77;21087;-80
2021/05/29 00:54:06;;;;;;;3.50;3.30;;;;;;;9.17;95.41;93159.53;1841365;77;21048;-81
2021/05/29 00:56:32;;;;;;;3.65;3.35;;;;;;;9.20;95.33;93156.81;1841788;77;21087;-81
2021/05/29 00:59:02;;;;;;;4.78;4.17;;;;;;;9.21;95.19;93154.31;1841890;77;21036;-81
2021/05/29 01:01:28;;;;;;;2.70;2.50;;;;;;;9.19;95.09;93157.22;1816988;77;21055;-80
2021/05/29 01:03:55;;;;;;;1.60;1.50;;;;;;;9.15;95.36;93152.39;1868782;75;20992;-81
2021/05/29 01:06:22;;;;;;;2.55;1.65;;;;;;;9.13;95.00;93149.28;1878680;76;21558;-81
2021/05/29 01:08:48;;;;;;;2.65;1.77;;;;;;;9.06;95.03;93155.48;1840685;77;21139;-81
2021/05/29 01:11:16;;;;;;;2.10;2.00;;;;;;;9.04;95.26;93161.13;1888808;76;20998;-81
2021/05/29 01:13:43;;;;;;;1.90;1.70;;;;;;;9.00;95.35;93159.78;1851105;76;21044;-80
2021/05/29 01:16:30;;;;;;;3.47;1.70;;;;;;;8.98;95.32;93158.03;1840761;77;21592;-81
2021/05/29 01:18:39;;;;;;;1.70;1.60;;;;;;;8.93;95.44;93157.85;1838445;77;21605;-80
2021/05/29 01:21:06;;;;;;;2.37;1.70;;;;;;;8.91;95.71;93164.27;1841739;77;21586;-81
2021/05/29 01:23:32;;;;;;;4.00;1.50;;;;;;;8.89;95.77;93159.80;1842373;77;21069;-80
2021/05/29 01:25:58;;;;;;;1.40;1.30;;;;;;;8.86;95.76;93157.09;1882018;74;21044;-80
2021/05/29 01:28:28;;;;;;;0.90;0.90;;;;;;;8.82;95.85;93159.81;1860181;76;21521;-80
2021/05/29 01:31:00;;;;;;;2.00;1.27;;;;;;;8.79;96.02;93155.16;1841586;77;21067;-80
2021/05/29 01:33:35;;;;;;;3.60;2.10;;;;;;;8.82;96.23;93159.04;1850881;75;22728;-81
2021/05/29 01:36:06;;;;;;;3.52;3.22;;;;;;;8.82;96.23;93158.45;1888410;76;21506;-80
2021/05/29 01:38:34;;;;;;;2.33;2.22;;;;;;;8.82;96.22;93155.75;1841246;77;21080;-80
2021/05/29 01:41:10;;;;;;;5.12;2.33;;;;;;;8.80;96.13;93149.16;1842008;77;21569;-80
2021/05/29 01:43:40;;;;;;;2.60;2.40;;;;;;;8.77;96.14;93154.02;1841313;77;21012;-79
2021/05/29 01:46:08;;;;;;;1.90;1.80;;;;;;;8.75;96.46;93144.32;1841167;77;21676;-79
2021/05/29 01:48:41;;;;;;;1.60;1.50;;;;;;;8.80;96.52;93146.44;1852726;75;21593;-79
2021/05/29 01:51:07;;;;;;;2.12;1.50;;;;;;;8.84;96.31;93146.66;1888342;75;21016;-81
2021/05/29 01:53:33;;;;;;;2.15;1.45;;;;;;;8.89;95.96;93138.70;1809027;79;21075;-81
2021/05/29 01:56:00;;;;;;;1.30;1.22;;;;;;;8.92;95.50;93141.40;1798917;79;20979;-81
2021/05/29 01:58:27;;;;;;;2.72;1.45;;;;;;;8.92;95.06;93135.98;1815563;78;21104;-81
2021/05/29 02:00:53;;;;;;;2.50;1.22;;;;;;;8.92;94.97;93135.20;1849656;76;20960;-81
2021/05/29 02:03:20;;;;;;;2.08;1.22;;;;;;;8.92;94.71;93135.20;1884883;76;21008;-82
2021/05/29 02:05:46;;;;;;;1.50;1.20;;;;;;;8.83;94.50;93133.47;1840223;77;21338;-81
2021/05/29 02:08:13;;;;;;;2.02;1.30;;;;;;;8.77;94.59;93129.04;1840999;77;21608;-81
2021/05/29 02:10:43;;;;;;;2.47;1.40;;;;;;;8.69;94.58;93123.44;1841911;77;21100;-82
2021/05/29 02:13:23;;;;;;;1.40;1.30;;;;;;;8.62;94.63;93131.58;1861509;74;21050;-81
2021/05/29 02:15:50;;;;;;;2.40;1.37;;;;;;;8.55;94.72;93137.00;1876759;76;21060;-81
2021/05/29 02:18:17;;;;;;;1.22;1.22;;;;;;;8.48;94.92;93125.00;1842654;74;21065;-81
2021/05/29 02:21:01;;;;;;;1.22;1.20;;;;;;;8.45;94.99;93125.77;1889412;76;21075;-80
2021/05/29 02:23:33;;;;;;;2.02;1.45;;;;;;;8.36;95.06;93128.08;1844989;76;21612;-81
2021/05/29 02:26:03;;;;;;;1.85;1.65;;;;;;;8.32;95.50;93125.19;1841276;77;21064;-81
2021/05/29 02:28:32;;;;;;;1.37;1.27;;;;;;;8.33;96.04;93133.50;1841088;77;21111;-80
2021/05/29 02:30:59;;;;;;;1.70;1.30;;;;;;;8.40;96.25;93133.53;1855599;74;21036;-82
2021/05/29 02:33:27;;;;;;;1.95;1.70;;;;;;;8.46;96.21;93127.34;1887025;76;21098;-81
2021/05/29 02:35:54;;;;;;;1.95;1.57;;;;;;;8.48;95.57;93129.06;1841987;77;21501;-80
2021/05/29 02:38:21;;;;;;;1.95;1.55;;;;;;;8.38;95.13;93121.70;1841590;77;21021;-81
2021/05/29 02:40:48;;;;;;;1.27;1.27;;;;;;;8.30;95.37;93126.91;1842270;77;21032;-80
2021/05/29 02:43:14;;;;;;;5.60;1.37;;;;;;;8.18;95.72;93128.07;1841795;77;21095;-80
2021/05/29 02:45:43;;;;;;;1.50;1.40;;;;;;;8.07;95.91;93131.35;1841942;77;21274;-80
2021/05/29 02:48:11;;;;;;;1.77;1.65;;;;;;;7.96;96.17;93134.05;1841544;77;21115;-82
2021/05/29 02:50:42;;;;;;;1.67;1.57;;;;;;;7.91;96.59;93128.25;1841090;77;21119;-80
2021/05/29 02:53:10;;;;;;;1.55;1.47;;;;;;;7.88;96.99;93130.37;1841722;77;21550;-81
2021/05/29 02:55:37;;;;;;;1.47;1.37;;;;;;;7.86;97.28;93129.41;1841424;77;21044;-80
2021/05/29 02:58:03;;;;;;;1.65;1.55;;;;;;;7.84;97.37;93127.66;1840890;77;21083;-82
2021/05/29 03:00:34;;;;;;;2.22;1.55;;;;;;;7.81;97.53;93127.06;1841087;77;21023;-81
2021/05/29 03:03:02;;;;;;;2.85;1.42;;;;;;;7.81;97.88;93125.70;1841828;77;21651;-80
2021/05/29 03:05:28;;;;;;;2.12;1.80;;;;;;;7.82;98.06;93125.90;1842293;77;21029;-80
2021/05/29 03:07:55;;;;;;;2.77;2.08;;;;;;;7.82;98.29;93123.77;1841641;77;21092;-81
2021/05/29 03:10:22;;;;;;;4.42;1.90;;;;;;;7.84;98.48;93126.88;1841345;77;21051;-81
2021/05/29 03:12:50;;;;;;;4.67;1.90;;;;;;;7.84;98.48;93122.23;1841534;77;21075;-81
2021/05/29 03:15:19;;;;;;;3.65;2.10;;;;;;;7.86;98.50;93123.20;1841386;77;21103;-81
2021/05/29 03:17:45;;;;;;;2.98;1.55;;;;;;;7.88;98.73;93134.43;1841991;77;21041;-81
2021/05/29 03:20:17;;;;;;;1.80;1.70;;;;;;;7.96;98.81;93131.92;1874446;74;20984;-81
2021/05/29 03:22:44;;;;;;;1.85;1.75;;;;;;;8.04;98.50;93134.24;1866245;76;20989;-80
2021/05/29 03:25:12;;;;;;;1.77;1.67;;;;;;;8.11;98.12;93140.25;1852409;76;21059;-81
2021/05/29 03:27:39;;;;;;;2.52;2.33;;;;;;;8.12;97.95;93141.79;1888950;76;21086;-81
2021/05/29 03:30:09;;;;;;;2.52;2.33;;;;;;;8.16;98.00;93132.31;1841953;77;21545;-80
2021/05/29 03:32:37;;;;;;;2.80;2.60;;;;;;;8.16;98.11;93129.05;1880135;76;21044;-81
2021/05/29 03:35:05;;;;;;;2.55;2.35;;;;;;;8.18;98.27;93128.66;1888687;74;21046;-80
2021/05/29 03:37:31;;;;;;;2.72;2.25;;;;;;;8.20;98.44;93131.77;1872772;76;21065;-81
2021/05/29 03:39:59;;;;;;;6.78;2.12;;;;;;;8.29;98.66;93132.14;1841751;77;21059;-81
2021/05/29 03:42:25;;;;;;;2.40;2.20;;;;;;;8.38;98.43;93131.19;1841063;77;21055;-81
2021/05/29 03:44:52;;;;;;;2.20;2.10;;;;;;;8.47;98.10;93125.40;1841417;77;21060;-80
2021/05/29 03:47:19;;;;;;;2.20;2.00;;;;;;;8.51;97.76;93130.23;1841472;77;21044;-81
2021/05/29 03:49:45;;;;;;;2.80;2.60;;;;;;;8.53;97.37;93129.83;1861373;75;21689;-81
2021/05/29 03:52:13;;;;;;;3.25;2.92;;;;;;;8.58;97.17;93125.39;1880359;76;21099;-81
2021/05/29 03:54:41;;;;;;;7.67;6.37;;;;;;;8.65;96.72;93121.30;1841571;77;21000;-80
2021/05/29 03:57:08;;;;;;;17.55;12.00;;;;;;;8.73;96.64;93129.62;1841836;77;21151;-80
2021/05/29 03:59:34;;;;;;;27.40;20.72;;;;;;;8.82;96.51;93118.37;1841429;77;21067;-80
2021/05/29 04:02:02;;;;;;;20.68;15.50;;;;;;;8.90;96.28;93126.09;1825039;77;21135;-80
2021/05/29 04:04:28;;;;;;;15.35;11.63;;;;;;;8.93;95.97;93125.31;1806768;79;21079;-80
2021/05/29 04:06:55;;;;;;;18.35;14.15;;;;;;;8.92;95.89;93114.88;1808457;74;21057;-81
2021/05/29 04:09:21;;;;;;;12.40;9.28;;;;;;;8.94;95.75;93116.59;1889766;76;21611;-81
2021/05/29 04:11:48;;;;;;;14.63;9.78;;;;;;;8.95;95.92;93112.15;1889451;75;21755;-80
2021/05/29 04:14:14;;;;;;;6.15;5.35;;;;;;;9.00;95.57;93105.55;1862902;76;21043;-81
2021/05/29 04:16:42;;;;;;;5.30;4.80;;;;;;;9.02;95.34;93107.27;1857037;74;21051;-81
2021/05/29 04:19:08;;;;;;;5.35;4.33;;;;;;;9.05;95.19;93109.78;1889481;75;21309;-81
2021/05/29 04:21:35;;;;;;;6.05;3.83;;;;;;;9.06;94.83;93103.19;1889296;76;21063;-80
2021/05/29 04:24:02;;;;;;;4.90;3.25;;;;;;;9.05;94.61;93107.08;1848687;76;21052;-81
2021/05/29 04:26:28;;;;;;;3.58;3.10;;;;;;;9.06;94.47;93109.97;1841126;77;21043;-80
2021/05/29 04:28:55;;;;;;;6.83;2.80;;;;;;;9.04;94.52;93113.09;1840638;77;21678;-80
2021/05/29 04:31:21;;;;;;;2.90;2.70;;;;;;;9.04;94.77;93110.37;1841735;77;21721;-80
2021/05/29 04:33:48;;;;;;;4.80;3.15;;;;;;;9.06;94.87;93101.83;1841403;77;21601;-80
2021/05/29 04:36:14;;;;;;;5.22;2.75;;;;;;;9.10;94.94;93101.23;1841210;77;21681;-80
2021/05/29 04:38:41;;;;;;;4.05;3.10;;;;;;;9.13;93.86;93093.67;1840833;77;21092;-80
2021/05/29 04:41:09;;;;;;;5.33;3.52;;;;;;;9.12;94.25;93092.14;1862452;76;20984;-80
2021/05/29 04:43:36;;;;;;;3.60;3.30;;;;;;;9.20;94.21;93095.00;1877031;76;21060;-80
2021/05/29 04:46:02;;;;;;;3.87;3.25;;;;;;;9.23;94.15;93087.44;1841177;77;21051;-80
2021/05/29 04:48:29;;;;;;;3.00;2.70;;;;;;;9.28;94.31;93087.02;1887770;75;21699;-80
2021/05/29 04:51:14;;;;;;;3.08;2.80;;;;;;;9.37;94.29;93087.38;1887944;75;21059;-80
2021/05/29 04:53:44;;;;;;;4.72;3.40;;;;;;;9.43;94.16;93086.38;1856757;76;21624;-80
2021/05/29 04:56:12;;;;;;;3.45;2.47;;;;;;;9.53;93.79;93085.55;1860919;75;21066;-80
2021/05/29 04:58:38;;;;;;;2.83;2.62;;;;;;;9.56;93.41;93087.48;1879720;76;21637;-83
2021/05/29 05:01:09;;;;;;;3.22;2.35;;;;;;;9.58;93.45;93085.72;1839876;77;21016;-83
2021/05/29 05:03:37;;;;;;;2.20;2.00;;;;;;;9.64;93.54;93086.27;1888016;74;21098;-83
2021/05/29 05:06:04;;;;;;;2.33;2.17;;;;;;;9.69;93.17;93081.77;1887580;76;21068;-81
2021/05/29 05:08:31;;;;;;;2.58;2.37;;;;;;;9.75;92.71;93078.06;1861765;76;21094;-81
2021/05/29 05:10:59;;;;;;;2.40;2.20;;;;;;;9.77;92.30;93082.50;1839955;77;21664;-80
2021/05/29 05:13:28;;;;;;;2.27;2.15;;;;;;;9.79;92.21;93084.83;1843483;75;21071;-80
2021/05/29 05:15:55;;;;;;;5.78;5.28;;;;;;;9.79;92.21;93078.81;1888127;76;21230;-80
2021/05/29 05:18:23;;;;;;;2.60;2.40;;;;;;;9.80;92.19;93078.98;1846762;76;21091;-80
2021/05/29 05:20:51;;;;;;;3.45;1.90;;;;;;;9.86;91.30;93080.13;1870847;74;21032;-80
2021/05/29 05:23:21;;;;;;;3.80;1.90;;;;;;;9.81;90.67;93076.45;1868907;76;21063;-80
2021/05/29 05:25:46;;;;;;;1.92;1.75;;;;;;;9.78;90.95;93073.76;1840107;77;21075;-81
2021/05/29 05:28:12;;;;;;;2.50;2.30;;;;;;;9.83;91.02;93064.63;1839330;77;21298;-80
2021/05/29 05:30:40;;;;;;;2.12;1.98;;;;;;;9.92;90.99;93065.52;1839713;77;21636;-82
2021/05/29 05:33:07;;;;;;;2.40;2.20;;;;;;;10.00;90.84;93067.59;1839953;77;21100;-84
2021/05/29 05:35:33;;;;;;;2.30;2.20;;;;;;;10.08;90.83;93066.37;1839461;77;21036;-85
2021/05/29 05:38:00;;;;;;;2.60;2.40;;;;;;;10.09;90.13;93067.94;1839893;77;21795;-81
2021/05/29 05:40:27;;;;;;;3.33;2.95;;;;;;;10.09;89.48;93062.50;1838709;77;21095;-81
2021/05/29 05:42:53;;;;;;;4.60;2.72;;;;;;;10.12;89.31;93057.04;1839071;77;21052;-80
2021/05/29 05:45:19;;;;;;;2.22;2.02;;;;;;;10.19;89.51;93056.98;1839427;77;21080;-81
2021/05/29 05:47:46;;;;;;;1.85;1.75;;;;;;;10.26;89.40;93058.11;1840656;77;21103;-81
2021/05/29 05:50:13;;;;;;;3.42;1.92;;;;;;;10.28;88.76;93057.91;1853244;74;21063;-80
2021/05/29 05:52:40;;;;;;;4.83;2.25;;;;;;;10.30;88.58;93067.77;1848470;76;21804;-81
2021/05/29 05:55:11;;;;;;;1.92;1.82;;;;;;;10.33;88.51;93069.69;1840032;77;21100;-81
2021/05/29 05:57:39;;;;;;;2.35;2.15;;;;;;;10.48;88.64;93068.98;1839789;77;21672;-82
2021/05/29 06:00:08;;;;;;;8.45;2.15;;;;;;;10.84;88.75;93075.44;1870819;75;21589;-82
2021/05/29 06:02:35;;;;;;;3.02;2.00;;;;;;;11.24;87.08;93075.16;1868797;76;21033;-81
2021/05/29 06:05:01;;;;;;;2.83;2.10;;;;;;;11.66;85.22;93074.47;1834760;77;21609;-82
2021/05/29 06:07:29;;;;;;;2.92;2.60;;;;;;;11.99;83.20;93066.62;1806253;79;21099;-81
2021/05/29 06:09:55;;;;;;;4.03;2.50;;;;;;;12.23;82.76;93071.52;1804022;79;22317;-81
2021/05/29 06:12:22;;;;;;;4.20;2.12;;;;;;;12.46;82.02;93073.48;1829077;77;21091;-82
2021/05/29 06:20:18;;;;;;;2.58;2.37;;;;;;;13.09;77.55;93066.72;1803143;79;21523;-82
2021/05/29 06:22:44;;;;;;;2.77;2.37;;;;;;;13.26;76.36;93055.30;1794743;78;21033;-82
2021/05/29 06:25:13;;;;;;;3.00;2.40;;;;;;;13.38;74.62;93057.38;1828763;78;21091;-81
2021/05/29 06:27:39;;;;;;;2.30;2.20;;;;;;;13.50;75.08;93055.40;1877162;76;21083;-82
2021/05/29 06:30:08;;;;;;;3.95;2.40;;;;;;;13.68;75.22;93055.59;1887585;76;21071;-83
2021/05/29 06:32:35;;;;;;;3.15;2.92;;;;;;;13.81;73.15;93050.43;1887450;74;21067;-82
2021/05/29 06:35:05;;;;;;;2.87;2.40;;;;;;;13.93;71.16;93049.00;1887109;76;21613;-81
2021/05/29 06:37:32;;;;;;;2.65;2.45;;;;;;;13.95;69.82;93045.22;1888065;76;21086;-81
2021/05/29 06:39:58;;;;;;;2.45;2.25;;;;;;;13.88;68.31;93049.51;1845381;76;21119;-82
2021/05/29 06:42:26;;;;;;;2.30;2.20;;;;;;;13.76;68.34;93048.78;1840279;76;22321;-82
2021/05/29 06:44:54;;;;;;;2.50;2.30;;;;;;;13.66;69.11;93052.53;1806712;77;21808;-81
2021/05/29 06:47:20;;;;;;;2.50;2.30;;;;;;;13.59;68.79;93046.62;1845644;77;21590;-82
2021/05/29 06:49:47;;;;;;;2.37;2.27;;;;;;;13.59;69.74;93043.89;1833490;78;21060;-82
2021/05/29 06:52:16;;;;;;;2.20;2.10;;;;;;;13.70;70.42;93036.23;1824501;77;21130;-81
2021/05/29 06:54:57;;;;;;;2.02;1.92;;;;;;;13.93;71.78;93041.39;1830793;78;21076;-81
2021/05/29 07:00:06;;;;;;;2.70;2.50;;;;;;;14.29;65.46;93039.38;1865027;76;21064;-82
2021/05/29 07:02:33;;;;;;;2.83;2.45;;;;;;;14.27;64.37;93034.92;1838305;77;22143;-81
2021/05/29 07:05:01;;;;;;;2.20;2.10;;;;;;;14.35;65.73;93030.05;1840693;76;20940;-83
2021/05/29 07:07:27;;;;;;;2.20;2.05;;;;;;;14.42;64.92;93030.47;1887601;76;21019;-82
2021/05/29 07:09:53;;;;;;;2.67;2.50;;;;;;;14.46;65.34;93030.55;1849866;76;21048;-80
2021/05/29 07:12:20;;;;;;;3.55;2.37;;;;;;;14.45;62.68;93030.98;1840043;77;21041;-80
2021/05/29 07:14:46;;;;;;;2.30;2.10;;;;;;;14.35;61.77;93024.58;1855118;74;20965;-80
2021/05/29 07:17:15;;;;;;;2.12;1.82;;;;;;;14.26;61.05;93021.08;1888982;74;21039;-80
2021/05/29 07:19:43;;;;;;;3.42;2.10;;;;;;;14.24;61.48;93023.46;1887140;75;21679;-82
2021/05/29 07:22:09;;;;;;;3.75;2.10;;;;;;;14.32;62.71;93019.95;1886720;74;21051;-83
2021/05/29 07:24:37;;;;;;;2.33;2.12;;;;;;;14.46;62.51;93022.34;1857001;75;21060;-79
2021/05/29 07:27:04;;;;;;;1.92;1.82;;;;;;;14.59;60.94;93023.80;1839390;77;21127;-82
2021/05/29 07:29:30;;;;;;;3.42;2.67;;;;;;;14.70;59.78;93019.42;1839156;77;21144;-79
2021/05/29 07:31:58;;;;;;;2.42;2.20;;;;;;;14.73;58.91;93026.17;1839665;77;21091;-81
2021/05/29 07:34:25;;;;;;;2.17;2.00;;;;;;;14.60;57.50;93015.02;1839689;77;21064;-81
2021/05/29 07:36:51;;;;;;;2.00;1.90;;;;;;;14.44;57.10;93014.39;1838898;77;20952;-82
2021/05/29 07:39:18;;;;;;;2.87;1.80;;;;;;;14.36;57.69;93008.92;1838666;77;21063;-82
2021/05/29 07:41:44;;;;;;;2.00;1.90;;;;;;;14.41;59.40;93007.83;1840093;77;21071;-80
2021/05/29 07:44:12;;;;;;;2.05;1.95;;;;;;;14.61;59.38;93011.07;1839671;77;21652;-81
2021/05/29 07:46:38;;;;;;;2.25;2.05;;;;;;;14.75;59.58;93017.55;1838896;77;21100;-83
2021/05/29 07:49:06;;;;;;;2.20;1.70;;;;;;;14.80;59.18;93014.28;1839453;77;21076;-81
2021/05/29 07:51:37;;;;;;;1.67;1.57;;;;;;;14.80;59.00;93014.28;1838714;77;21118;-82
2021/05/29 07:54:05;;;;;;;1.87;1.77;;;;;;;14.74;57.63;93014.05;1838835;77;21044;-82
2021/05/29 07:56:33;;;;;;;1.70;1.60;;;;;;;14.65;59.60;93013.12;1838439;77;21112;-83
2021/05/29 07:59:06;;;;;;;2.65;1.85;;;;;;;14.61;60.83;93009.10;1839676;77;21091;-84
2021/05/29 08:01:29;;;;;;;2.12;1.95;;;;;;;14.60;61.70;93008.94;1838655;77;21084;-83
2021/05/29 08:03:56;;;;;;;2.75;1.80;;;;;;;14.56;60.02;93013.13;1870590;75;21075;-84
2021/05/29 08:06:22;;;;;;;1.92;1.82;;;;;;;14.51;61.46;93014.23;1869967;76;21447;-83
2021/05/29 08:08:49;;;;;;;2.42;1.70;;;;;;;14.45;61.52;93013.98;1841699;77;21077;-84
2021/05/29 08:11:22;;;;;;;1.87;1.70;;;;;;;14.44;62.99;93013.02;1815154;77;21610;-82
2021/05/29 08:13:54;;;;;;;2.90;2.30;;;;;;;14.42;62.92;93019.53;1840706;77;21111;-84
2021/05/29 08:16:21;;;;;;;2.67;2.47;;;;;;;14.38;62.01;93008.67;1841341;77;21107;-81
2021/05/29 08:18:50;;;;;;;6.25;2.40;;;;;;;14.32;63.01;93007.64;1840918;77;21050;-81
2021/05/29 08:21:16;;;;;;;2.67;2.45;;;;;;;14.29;64.44;93012.60;1856273;74;21132;-82
2021/05/29 08:23:45;;;;;;;2.75;2.22;;;;;;;14.26;64.42;93019.71;1888518;74;21028;-83
2021/05/29 08:26:11;;;;;;;3.52;2.40;;;;;;;14.23;64.76;93018.43;1888060;76;21297;-83
2021/05/29 08:28:40;;;;;;;2.35;2.15;;;;;;;14.19;65.44;93015.78;1845345;76;21056;-84
2021/05/29 08:31:07;;;;;;;6.85;2.80;;;;;;;14.14;65.82;93019.61;1842007;77;21692;-81
2021/05/29 08:33:33;;;;;;;2.17;2.08;;;;;;;14.03;66.06;93020.66;1842014;77;21048;-83
2021/05/29 08:35:59;;;;;;;2.60;2.37;;;;;;;13.94;66.28;93020.45;1840914;77;21067;-82
2021/05/29 08:38:28;;;;;;;3.35;2.60;;;;;;;13.83;65.76;93026.77;1840219;77;21042;-82
2021/05/29 08:40:54;;;;;;;5.37;2.22;;;;;;;13.78;66.29;93027.28;1840594;77;21075;-81
2021/05/29 08:43:21;;;;;;;3.85;2.62;;;;;;;13.66;66.02;93031.45;1875017;75;21121;-81
2021/05/29 08:45:47;;;;;;;2.98;2.22;;;;;;;13.57;66.26;93027.91;1866477;76;22026;-85
2021/05/29 08:48:16;;;;;;;4.62;2.80;;;;;;;13.53;67.02;93033.27;1843199;77;21107;-82
2021/05/29 08:53:30;;;;;;;;;;;;;;;13.35;67.87;93034.44;1891899;76;21040;-81
2021/05/29 08:55:58;;;;;;;8.38;2.62;;;;;;;13.27;68.26;93039.08;1817356;77;20269;-80
2021/05/29 08:58:26;;;;;;;10.43;3.40;;;;;;;13.16;68.52;93041.22;1878409;74;21093;-80
2021/05/29 09:00:52;;;;;;;9.68;6.72;;;;;;;13.03;69.38;93035.63;1864589;76;21613;-81
2021/05/29 09:03:19;;;;;;;6.40;4.95;;;;;;;12.93;69.62;93042.05;1840372;77;21069;-81
2021/05/29 09:05:53;;;;;;;6.60;4.97;;;;;;;12.84;70.32;93043.98;1839016;77;21039;-80
2021/05/29 09:08:22;;;;;;;31.20;18.12;;;;;;;12.76;70.94;93045.30;1840692;77;21071;-79
2021/05/29 09:10:53;;;;;;;30.17;17.37;;;;;;;12.65;71.09;93042.77;1839792;77;21637;-80
2021/05/29 09:13:27;;;;;;;25.00;16.50;;;;;;;12.59;71.34;93038.97;1870257;74;21058;-80
2021/05/29 09:16:07;;;;;;;6.85;5.83;;;;;;;12.54;71.57;93040.82;1864538;76;21083;-83
2021/05/29 09:18:46;;;;;;;6.72;6.00;;;;;;;12.47;72.05;93047.75;1814015;77;21135;-81
2021/05/29 09:21:34;;;;;;;10.03;7.35;;;;;;;12.39;72.61;93034.23;1833883;76;21121;-81
2021/05/29 09:24:14;;;;;;;5.85;4.70;;;;;;;12.36;73.17;93034.30;1793775;79;21307;-81
2021/05/29 09:26:52;;;;;;;4.03;3.42;;;;;;;12.36;73.11;93024.76;1803496;78;21075;-82
2021/05/29 09:29:28;;;;;;;3.50;3.30;;;;;;;12.38;73.54;93019.08;1807658;79;21672;-82
2021/05/29 09:32:08;;;;;;;2.92;2.72;;;;;;;12.40;73.16;93020.01;1808313;79;21032;-82
2021/05/29 09:34:52;;;;;;;3.37;3.08;;;;;;;12.41;74.21;93025.63;1809396;79;21116;-82
2021/05/29 09:37:24;;;;;;;2.70;2.50;;;;;;;12.46;74.58;93020.31;1808051;79;21124;-83
2021/05/29 09:40:08;;;;;;;2.95;2.75;;;;;;;12.55;75.77;93028.72;1808208;79;21224;-82
2021/05/29 09:42:40;;;;;;;2.98;2.67;;;;;;;12.67;76.21;93021.88;1808275;79;21626;-83
2021/05/29 09:45:23;;;;;;;5.00;2.90;;;;;;;12.78;75.95;93022.45;1809545;79;21056;-80
2021/05/29 09:48:00;;;;;;;2.77;2.45;;;;;;;12.89;75.65;93021.66;1808014;79;21040;-80
2021/05/29 09:50:26;;;;;;;3.22;3.02;;;;;;;12.99;74.82;93019.33;1802552;79;21084;-81
2021/05/29 09:52:53;;;;;;;3.30;3.00;;;;;;;13.10;72.29;93023.22;1823190;77;21124;-79
2021/05/29 09:55:25;;;;;;;3.40;3.10;;;;;;;13.18;70.85;93024.61;1798108;78;21079;-81
2021/05/29 09:57:57;;;;;;;3.80;3.50;;;;;;;13.16;70.20;93028.34;1766343;77;21572;-81
2021/05/29 10:00:25;;;;;;;3.70;3.40;;;;;;;13.17;69.35;93022.31;1833150;77;21071;-82
2021/05/29 10:02:59;;;;;;;3.55;2.65;;;;;;;13.20;70.50;93020.08;1720835;81;21089;-80
2021/05/29 10:05:27;;;;;;;5.57;2.90;;;;;;;13.30;68.99;93013.06;1832118;78;21194;-81
2021/05/29 10:07:56;;;;;;;3.55;3.25;;;;;;;13.44;68.99;93010.64;1833739;78;21052;-78
2021/05/29 10:10:22;;;;;;;2.98;2.77;;;;;;;13.55;67.64;93006.33;1835253;78;21087;-79
2021/05/29 10:12:50;;;;;;;4.80;3.00;;;;;;;13.59;67.12;93012.48;1836429;77;21071;-81
2021/05/29 10:15:17;;;;;;;5.00;2.62;;;;;;;13.56;67.15;93012.72;1839295;76;21095;-80
2021/05/29 10:17:47;;;;;;;3.00;2.80;;;;;;;13.57;65.61;93013.48;1882853;76;21083;-80
2021/05/29 10:20:15;;;;;;;3.25;2.77;;;;;;;13.58;65.63;93013.08;1844603;76;21052;-80
2021/05/29 10:22:44;;;;;;;3.85;3.15;;;;;;;13.60;66.08;93008.54;1837580;77;21084;-82
2021/05/29 10:25:15;;;;;;;3.60;3.12;;;;;;;13.57;67.67;93004.69;1857906;74;21063;-82
2021/05/29 10:27:51;;;;;;;3.15;2.90;;;;;;;13.56;68.70;93009.22;1887883;74;21137;-79
2021/05/29 10:30:23;;;;;;;5.22;4.60;;;;;;;13.50;68.07;93011.69;1853256;75;21047;-81
2021/05/29 10:35:47;;;;;;;6.05;4.50;;;;;;;13.45;68.50;93012.77;1792444;77;21191;-79
2021/05/29 10:38:12;;;;;;;7.42;5.97;;;;;;;13.43;69.26;93011.84;1869406;76;21103;-79
2021/05/29 10:40:47;;;;;;;19.73;14.80;;;;;;;13.41;68.25;93006.63;1861222;76;21091;-80
2021/05/29 10:43:20;;;;;;;60.00;42.73;;;;;;;13.37;68.34;93005.33;1840158;77;21032;-78
2021/05/29 10:45:58;;;;;;;12.90;10.58;;;;;;;13.35;69.27;93000.88;1840907;77;21043;-79
2021/05/29 10:48:26;;;;;;;6.40;4.35;;;;;;;13.36;68.99;93003.20;1841378;77;21123;-80
2021/05/29 10:51:07;;;;;;;6.15;4.40;;;;;;;13.38;70.33;93007.46;1840295;77;21644;-81
2021/05/29 10:53:55;;;;;;;4.50;4.10;;;;;;;13.43;69.76;93012.44;1882777;74;21644;-79
2021/05/29 10:56:26;;;;;;;5.08;4.33;;;;;;;13.49;69.73;93020.30;1851242;76;21357;-79
2021/05/29 10:59:16;;;;;;;4.53;4.08;;;;;;;13.51;69.96;93020.66;1842863;77;21056;-81
2021/05/29 11:01:48;;;;;;;5.65;3.83;;;;;;;13.45;70.09;93017.64;1841024;77;21024;-79
2021/05/29 11:04:24;;;;;;;4.22;3.83;;;;;;;13.34;70.12;93009.66;1856644;75;21040;-81
2021/05/29 11:06:58;;;;;;;4.80;3.37;;;;;;;13.27;70.14;93018.59;1881018;76;21482;-81
2021/05/29 11:09:34;;;;;;;8.90;5.85;;;;;;;13.20;70.96;93014.05;1839911;77;21107;-82
2021/05/29 11:12:02;;;;;;;5.72;4.45;;;;;;;13.17;70.94;93010.79;1887441;76;21039;-80
2021/05/29 11:14:44;;;;;;;5.10;4.10;;;;;;;13.16;71.97;93017.42;1848637;76;21498;-80
2021/05/29 11:17:11;;;;;;;5.03;4.53;;;;;;;13.16;73.50;93013.33;1839219;77;21071;-81
2021/05/29 11:19:39;;;;;;;9.28;6.05;;;;;;;13.18;71.87;93015.66;1839171;77;22187;-80
2021/05/29 11:22:19;;;;;;;4.62;3.85;;;;;;;13.12;72.04;93014.76;1850069;74;21071;-81
2021/05/29 11:24:56;;;;;;;4.47;3.98;;;;;;;13.12;73.46;93013.99;1890336;75;21070;-79
2021/05/29 11:27:33;;;;;;;4.33;3.67;;;;;;;13.20;71.91;93011.89;1890597;76;21589;-80
2021/05/29 11:30:09;;;;;;;3.55;3.25;;;;;;;13.24;71.87;93023.53;1842995;76;21079;-78
2021/05/29 11:35:45;;;;;;;5.10;3.20;;;;;;;13.27;70.39;93022.70;1889958;76;21048;-81
2021/05/29 11:38:19;;;;;;;;;;;;;;;13.24;70.59;93013.98;1891788;74;21036;-78
2021/05/29 11:40:59;;;;;;;3.65;1.90;;;;;;;13.23;68.56;93013.22;1867320;76;20891;-78
2021/05/29 11:43:55;;;;;;;3.52;1.30;;;;;;;13.17;67.41;93018.22;1854473;75;21043;-79
2021/05/29 11:46:26;;;;;;;2.15;1.95;;;;;;;13.12;67.93;93013.99;1875513;76;21698;-79
2021/05/29 11:49:05;;;;;;;1.80;1.70;;;;;;;13.15;68.59;93006.93;1842765;77;21072;-78
2021/05/29 11:51:36;;;;;;;2.40;2.20;;;;;;;13.22;67.71;93011.66;1839954;77;21064;-82
2021/05/29 11:54:19;;;;;;;1.98;1.87;;;;;;;13.24;67.30;93009.88;1839576;77;21068;-82
2021/05/29 11:56:51;;;;;;;2.95;2.02;;;;;;;13.17;68.75;93010.02;1839441;77;21428;-81
2021/05/29 11:59:19;;;;;;;2.75;2.35;;;;;;;13.05;70.00;93019.02;1869482;74;21128;-82
2021/05/29 12:01:48;;;;;;;3.47;2.40;;;;;;;12.96;70.74;93021.52;1837938;77;21036;-83
2021/05/29 12:04:17;;;;;;;2.90;2.70;;;;;;;12.86;70.88;93026.58;1825429;77;21147;-82